createdAt,value
2017-01-12T00:00:40.597Z,6.03
2017-01-12T00:01:40.583Z,6
2017-01-12T00:02:40.598Z,6.07
2017-01-12T00:03:40.674Z,5.93
2017-01-12T00:04:40.634Z,6.04
2017-01-12T00:05:40.627Z,6.09
2017-01-12T00:06:40.592Z,6.11
2017-01-12T00:07:40.662Z,6.11
2017-01-12T00:08:40.586Z,6.13
2017-01-12T00:09:40.577Z,6.01
2017-01-12T00:10:40.583Z,6.18
2017-01-12T00:11:40.650Z,6.1
2017-01-12T00:12:40.588Z,6.04
2017-01-12T00:13:40.610Z,6.07
2017-01-12T00:14:40.566Z,6.22
2017-01-12T00:15:40.586Z,6.18
2017-01-12T00:16:40.636Z,6.18
2017-01-12T00:17:40.577Z,6.18
2017-01-12T00:18:40.576Z,6.21
2017-01-12T00:19:40.633Z,6.32
2017-01-12T00:20:41.253Z,6.29
2017-01-12T00:21:40.613Z,6.25
2017-01-12T00:22:40.608Z,6.18
2017-01-12T00:23:40.553Z,6.14
2017-01-12T00:24:41.209Z,6.09
2017-01-12T00:25:40.589Z,6.07
2017-01-12T00:26:40.627Z,6.01
2017-01-12T00:27:40.654Z,6.09
2017-01-12T00:28:40.557Z,6.18
2017-01-12T00:29:40.674Z,6.06
2017-01-12T00:30:40.575Z,6.09
2017-01-12T00:31:40.628Z,6.18
2017-01-12T00:32:40.602Z,6.13
2017-01-12T00:33:40.587Z,6.19
2017-01-12T00:34:40.592Z,6.26
2017-01-12T00:35:40.592Z,6.06
2017-01-12T00:36:40.593Z,6.21
2017-01-12T00:37:40.600Z,6.25
2017-01-12T00:38:40.558Z,6.26
2017-01-12T00:39:40.777Z,6.38
2017-01-12T00:40:40.601Z,6.21
2017-01-12T00:41:40.629Z,6.29
2017-01-12T00:42:40.582Z,6.25
2017-01-12T00:43:40.604Z,6.29
2017-01-12T00:44:40.590Z,6.22
2017-01-12T00:45:40.621Z,6.33
2017-01-12T00:46:40.642Z,6.33
2017-01-12T00:47:40.622Z,6.14
2017-01-12T00:48:40.571Z,6.16
2017-01-12T00:49:40.606Z,6.29
2017-01-12T00:50:40.587Z,6.07
2017-01-12T00:51:41.285Z,6.11
2017-01-12T00:52:40.610Z,6.22
2017-01-12T00:53:40.601Z,6.21
2017-01-12T00:54:40.602Z,6.29
2017-01-12T00:55:40.593Z,6.18
2017-01-12T00:56:40.612Z,6.29
2017-01-12T00:57:40.671Z,6.14
2017-01-12T00:58:40.652Z,6.03
2017-01-12T00:59:40.585Z,6.09
2017-01-12T01:00:40.625Z,6
2017-01-12T01:01:40.606Z,5.96
2017-01-12T01:02:40.586Z,5.88
2017-01-12T01:03:40.618Z,5.85
2017-01-12T01:04:40.596Z,5.68
2017-01-12T01:05:40.610Z,5.71
2017-01-12T01:06:40.635Z,5.81
2017-01-12T01:07:40.600Z,5.73
2017-01-12T01:08:40.743Z,5.66
2017-01-12T01:09:40.641Z,5.75
2017-01-12T01:10:40.614Z,5.83
2017-01-12T01:11:40.643Z,5.64
2017-01-12T01:12:40.601Z,5.63
2017-01-12T01:13:40.669Z,5.6
2017-01-12T01:14:40.589Z,5.43
2017-01-12T01:15:40.626Z,5.64
2017-01-12T01:16:40.642Z,5.41
2017-01-12T01:17:40.741Z,5.56
2017-01-12T01:18:40.894Z,5.55
2017-01-12T01:19:40.712Z,5.55
2017-01-12T01:20:40.585Z,5.45
2017-01-12T01:21:40.695Z,5.43
2017-01-12T01:22:40.632Z,5.48
2017-01-12T01:23:40.596Z,5.34
2017-01-12T01:24:40.693Z,5.34
2017-01-12T01:25:40.600Z,5.35
2017-01-12T01:26:40.699Z,5.27
2017-01-12T01:27:40.830Z,5.3
2017-01-12T01:28:40.606Z,5.32
2017-01-12T01:29:40.701Z,5.28
2017-01-12T01:30:40.621Z,5.28
2017-01-12T01:31:40.655Z,5.27
2017-01-12T01:32:40.623Z,5.3
2017-01-12T01:33:40.587Z,5.23
2017-01-12T01:34:40.627Z,5.37
2017-01-12T01:35:40.643Z,5.38
2017-01-12T01:36:40.611Z,5.45
2017-01-12T01:37:40.617Z,5.53
2017-01-12T01:38:40.645Z,5.45
2017-01-12T01:39:40.711Z,5.55
2017-01-12T01:40:40.634Z,5.56
2017-01-12T01:41:40.695Z,5.5
2017-01-12T01:42:40.638Z,5.49
2017-01-12T01:43:40.662Z,5.5
2017-01-12T01:44:40.633Z,5.55
2017-01-12T01:45:40.663Z,5.48
2017-01-12T01:46:40.655Z,5.56
2017-01-12T01:47:40.643Z,5.48
2017-01-12T01:48:40.673Z,5.57
2017-01-12T01:49:40.651Z,5.68
2017-01-12T01:50:40.616Z,5.77
2017-01-12T01:51:40.634Z,5.74
2017-01-12T01:52:40.671Z,5.67
2017-01-12T01:53:40.663Z,5.68
2017-01-12T01:54:40.630Z,5.67
2017-01-12T01:55:40.623Z,5.66
2017-01-12T01:56:40.663Z,5.81
2017-01-12T01:57:40.695Z,5.82
2017-01-12T01:58:40.662Z,5.73
2017-01-12T01:59:40.742Z,5.67
2017-01-12T02:00:40.675Z,5.71
2017-01-12T02:01:40.915Z,5.75
2017-01-12T02:02:40.677Z,5.71
2017-01-12T02:03:40.621Z,5.77
2017-01-12T02:04:40.642Z,5.74
2017-01-12T02:05:40.656Z,5.75
2017-01-12T02:06:40.747Z,5.77
2017-01-12T02:07:40.638Z,5.78
2017-01-12T02:08:40.668Z,5.71
2017-01-12T02:09:40.749Z,5.73
2017-01-12T02:10:40.655Z,5.56
2017-01-12T02:11:40.751Z,5.82
2017-01-12T02:12:40.640Z,5.71
2017-01-12T02:13:40.664Z,5.6
2017-01-12T02:14:40.685Z,5.68
2017-01-12T02:15:40.674Z,5.57
2017-01-12T02:16:40.675Z,5.59
2017-01-12T02:17:40.691Z,5.63
2017-01-12T02:18:40.669Z,5.45
2017-01-12T02:19:40.697Z,5.6
2017-01-12T02:20:40.663Z,5.46
2017-01-12T02:21:40.689Z,5.5
2017-01-12T02:22:40.652Z,5.45
2017-01-12T02:23:40.630Z,5.4
2017-01-12T02:24:40.695Z,5.41
2017-01-12T02:25:40.665Z,5.4
2017-01-12T02:26:40.677Z,5.35
2017-01-12T02:27:40.648Z,5.25
2017-01-12T02:28:40.755Z,5.35
2017-01-12T02:29:40.701Z,5.41
2017-01-12T02:30:40.724Z,5.27
2017-01-12T02:31:40.656Z,5.25
2017-01-12T02:32:40.642Z,5.17
2017-01-12T02:33:40.659Z,5.09
2017-01-12T02:34:40.674Z,5.14
2017-01-12T02:35:40.645Z,5.12
2017-01-12T02:36:40.685Z,5.04
2017-01-12T02:37:40.674Z,5.04
2017-01-12T02:38:40.654Z,5.16
2017-01-12T02:39:40.680Z,5.02
2017-01-12T02:40:40.694Z,5.16
2017-01-12T02:41:40.701Z,5.13
2017-01-12T02:42:40.685Z,5.13
2017-01-12T02:43:40.658Z,5.16
2017-01-12T02:44:40.682Z,4.98
2017-01-12T02:45:40.720Z,5.04
2017-01-12T02:46:41.018Z,4.89
2017-01-12T02:47:40.673Z,5.02
2017-01-12T02:48:40.657Z,5.02
2017-01-12T02:49:40.673Z,4.86
2017-01-12T02:50:40.685Z,4.95
2017-01-12T02:51:40.898Z,5.02
2017-01-12T02:52:40.753Z,4.96
2017-01-12T02:53:40.704Z,5.04
2017-01-12T02:54:40.686Z,5.01
2017-01-12T02:55:40.781Z,4.95
2017-01-12T02:56:40.728Z,4.95
2017-01-12T02:57:40.747Z,4.92
2017-01-12T02:58:40.667Z,5.1
2017-01-12T02:59:40.760Z,4.99
2017-01-12T03:00:40.766Z,5.01
2017-01-12T03:01:40.757Z,4.98
2017-01-12T03:02:40.693Z,5.12
2017-01-12T03:03:40.935Z,5.05
2017-01-12T03:04:40.680Z,4.99
2017-01-12T03:05:40.845Z,5.13
2017-01-12T03:06:40.743Z,5.04
2017-01-12T03:07:40.754Z,5.17
2017-01-12T03:08:40.705Z,5.05
2017-01-12T03:09:41.001Z,5.2
2017-01-12T03:10:40.895Z,5.05
2017-01-12T03:11:40.709Z,4.92
2017-01-12T03:12:40.684Z,5.1
2017-01-12T03:13:41.634Z,5.09
2017-01-12T03:14:40.758Z,5.2
2017-01-12T03:15:40.847Z,5.14
2017-01-12T03:16:40.765Z,5.05
2017-01-12T03:17:40.742Z,5.1
2017-01-12T03:18:40.711Z,5.09
2017-01-12T03:19:40.749Z,5.05
2017-01-12T03:20:40.747Z,4.98
2017-01-12T03:21:41.508Z,4.96
2017-01-12T03:22:40.913Z,4.88
2017-01-12T03:23:40.709Z,4.96
2017-01-12T03:24:40.705Z,4.92
2017-01-12T03:25:40.912Z,4.94
2017-01-12T03:26:40.942Z,4.86
2017-01-12T03:27:40.822Z,4.62
2017-01-12T03:28:40.861Z,4.76
2017-01-12T03:29:40.755Z,4.83
2017-01-12T03:30:40.717Z,4.86
2017-01-12T03:31:40.742Z,4.7
2017-01-12T03:32:40.758Z,4.79
2017-01-12T03:33:40.759Z,4.94
2017-01-12T03:34:40.720Z,4.83
2017-01-12T03:35:40.848Z,4.91
2017-01-12T03:36:40.807Z,4.98
2017-01-12T03:37:40.982Z,4.94
2017-01-12T03:38:40.775Z,4.91
2017-01-12T03:39:40.740Z,4.95
2017-01-12T03:40:40.712Z,4.94
2017-01-12T03:41:40.720Z,4.92
2017-01-12T03:42:41.245Z,5.09
2017-01-12T03:43:41.040Z,5.04
2017-01-12T03:44:41.008Z,5.04
2017-01-12T03:45:41.282Z,5.01
2017-01-12T03:46:40.817Z,5.13
2017-01-12T03:47:40.877Z,5.09
2017-01-12T03:48:40.912Z,5.04
2017-01-12T03:49:40.787Z,5.1
2017-01-12T03:50:40.760Z,5.07
2017-01-12T03:51:40.756Z,5.02
2017-01-12T03:52:40.744Z,5.09
2017-01-12T03:53:40.968Z,5.09
2017-01-12T03:54:40.739Z,5.13
2017-01-12T03:55:40.746Z,5.13
2017-01-12T03:56:41.093Z,5.19
2017-01-12T03:57:41.036Z,5.2
2017-01-12T03:58:40.760Z,5.02
2017-01-12T03:59:40.912Z,5.09
2017-01-12T04:00:40.741Z,5.23
2017-01-12T04:01:40.764Z,5.14
2017-01-12T04:02:40.744Z,5.19
2017-01-12T04:03:40.777Z,5.25
2017-01-12T04:04:40.739Z,5.14
2017-01-12T04:05:40.767Z,5.17
2017-01-12T04:06:40.829Z,5.19
2017-01-12T04:07:40.808Z,5.2
2017-01-12T04:08:40.765Z,5.3
2017-01-12T04:09:40.762Z,5.12
2017-01-12T04:10:40.754Z,5.27
2017-01-12T04:11:40.763Z,5.16
2017-01-12T04:12:40.735Z,5.2
2017-01-12T04:13:40.832Z,5.35
2017-01-12T04:14:40.739Z,5.31
2017-01-12T04:15:40.727Z,5.34
2017-01-12T04:16:40.765Z,5.45
2017-01-12T04:17:40.729Z,5.2
2017-01-12T04:18:40.751Z,5.2
2017-01-12T04:19:40.726Z,5.31
2017-01-12T04:20:40.752Z,5.31
2017-01-12T04:21:40.829Z,5.34
2017-01-12T04:22:40.733Z,5.4
2017-01-12T04:23:40.740Z,5.35
2017-01-12T04:24:40.774Z,5.27
2017-01-12T04:25:40.805Z,5.27
2017-01-12T04:26:40.789Z,5.28
2017-01-12T04:27:40.755Z,5.34
2017-01-12T04:28:40.763Z,5.35
2017-01-12T04:29:40.740Z,5.32
2017-01-12T04:30:40.747Z,5.19
2017-01-12T04:31:40.768Z,5.2
2017-01-12T04:32:40.776Z,5.27
2017-01-12T04:33:40.752Z,5.22
2017-01-12T04:34:40.756Z,5.19
2017-01-12T04:35:40.741Z,5.3
2017-01-12T04:36:40.770Z,5.2
2017-01-12T04:37:40.762Z,5.38
2017-01-12T04:38:40.757Z,5.35
2017-01-12T04:39:40.773Z,5.25
2017-01-12T04:40:40.781Z,5.22
2017-01-12T04:41:40.787Z,5.35
2017-01-12T04:42:40.749Z,5.32
2017-01-12T04:43:40.771Z,5.23
2017-01-12T04:44:40.765Z,5.35
2017-01-12T04:45:40.760Z,5.32
2017-01-12T04:46:40.792Z,5.28
2017-01-12T04:47:40.746Z,5.34
2017-01-12T04:48:40.807Z,5.34
2017-01-12T04:49:40.757Z,5.38
2017-01-12T04:50:40.748Z,5.3
2017-01-12T04:51:40.787Z,5.23
2017-01-12T04:52:40.781Z,5.32
2017-01-12T04:53:40.778Z,5.41
2017-01-12T04:54:40.784Z,5.34
2017-01-12T04:55:40.791Z,5.34
2017-01-12T04:56:40.798Z,5.4
2017-01-12T04:57:40.787Z,5.3
2017-01-12T04:58:40.761Z,5.4
2017-01-12T04:59:40.768Z,5.38
2017-01-12T05:00:40.773Z,5.38
2017-01-12T05:01:40.783Z,5.28
2017-01-12T05:02:40.791Z,5.27
2017-01-12T05:03:40.750Z,5.28
2017-01-12T05:04:40.801Z,5.35
2017-01-12T05:05:40.783Z,5.23
2017-01-12T05:06:40.823Z,5.31
2017-01-12T05:07:40.823Z,5.38
2017-01-12T05:08:40.793Z,5.31
2017-01-12T05:09:40.788Z,5.3
2017-01-12T05:10:40.788Z,5.41
2017-01-12T05:11:40.791Z,5.23
2017-01-12T05:12:40.811Z,5.27
2017-01-12T05:13:40.790Z,5.3
2017-01-12T05:14:40.791Z,5.37
2017-01-12T05:15:40.804Z,5.4
2017-01-12T05:16:40.832Z,5.46
2017-01-12T05:17:40.795Z,5.37
2017-01-12T05:18:40.845Z,5.34
2017-01-12T05:19:40.792Z,5.52
2017-01-12T05:20:40.853Z,5.49
2017-01-12T05:21:40.833Z,5.53
2017-01-12T05:22:40.798Z,5.5
2017-01-12T05:23:40.782Z,5.41
2017-01-12T05:24:40.771Z,5.46
2017-01-12T05:25:40.819Z,5.53
2017-01-12T05:26:40.813Z,5.6
2017-01-12T05:27:40.807Z,5.49
2017-01-12T05:28:40.818Z,5.56
2017-01-12T05:29:40.792Z,5.5
2017-01-12T05:30:40.810Z,5.56
2017-01-12T05:31:40.824Z,5.52
2017-01-12T05:32:40.819Z,5.56
2017-01-12T05:33:40.821Z,5.38
2017-01-12T05:34:40.847Z,5.59
2017-01-12T05:35:40.841Z,5.63
2017-01-12T05:36:40.897Z,5.56
2017-01-12T05:37:40.874Z,5.43
2017-01-12T05:38:40.873Z,5.6
2017-01-12T05:39:40.811Z,5.56
2017-01-12T05:40:40.805Z,5.5
2017-01-12T05:41:40.816Z,5.35
2017-01-12T05:42:40.804Z,5.55
2017-01-12T05:43:40.852Z,5.56
2017-01-12T05:44:40.807Z,5.34
2017-01-12T05:45:40.819Z,5.2
2017-01-12T05:46:40.864Z,5.4
2017-01-12T05:47:40.813Z,5.32
2017-01-12T05:48:40.805Z,5.25
2017-01-12T05:49:40.851Z,5.32
2017-01-12T05:50:40.788Z,5.22
2017-01-12T05:51:40.810Z,5.31
2017-01-12T05:52:40.802Z,5.31
2017-01-12T05:53:40.775Z,5.31
2017-01-12T05:54:40.810Z,5.2
2017-01-12T05:55:40.816Z,5.37
2017-01-12T05:56:40.819Z,5.3
2017-01-12T05:57:40.800Z,5.35
2017-01-12T05:58:40.835Z,5.3
2017-01-12T05:59:40.815Z,5.3
2017-01-12T06:00:40.817Z,5.37
2017-01-12T06:01:40.860Z,5.38
2017-01-12T06:02:40.840Z,5.38
2017-01-12T06:03:40.839Z,5.4
2017-01-12T06:04:40.887Z,5.34
2017-01-12T06:05:40.801Z,5.4
2017-01-12T06:06:40.832Z,5.3
2017-01-12T06:07:40.801Z,5.38
2017-01-12T06:08:40.803Z,5.4
2017-01-12T06:09:40.822Z,5.37
2017-01-12T06:10:40.849Z,5.46
2017-01-12T06:11:40.860Z,5.38
2017-01-12T06:12:40.871Z,5.31
2017-01-12T06:13:40.870Z,5.46
2017-01-12T06:14:41.482Z,5.46
2017-01-12T06:15:40.827Z,5.32
2017-01-12T06:16:40.876Z,5.38
2017-01-12T06:17:40.828Z,5.48
2017-01-12T06:18:40.845Z,5.46
2017-01-12T06:19:40.855Z,5.48
2017-01-12T06:20:40.855Z,5.52
2017-01-12T06:21:40.837Z,5.38
2017-01-12T06:22:40.835Z,5.37
2017-01-12T06:23:40.837Z,5.38
2017-01-12T06:24:40.839Z,5.48
2017-01-12T06:25:40.860Z,5.27
2017-01-12T06:26:40.856Z,5.46
2017-01-12T06:27:40.820Z,5.43
2017-01-12T06:28:40.858Z,5.38
2017-01-12T06:29:40.845Z,5.4
2017-01-12T06:30:40.846Z,5.52
2017-01-12T06:31:40.874Z,5.37
2017-01-12T06:32:40.849Z,5.37
2017-01-12T06:33:40.845Z,5.45
2017-01-12T06:34:40.873Z,5.48
2017-01-12T06:35:40.877Z,5.43
2017-01-12T06:36:40.864Z,5.48
2017-01-12T06:37:40.851Z,5.5
2017-01-12T06:38:40.892Z,5.5
2017-01-12T06:39:40.864Z,5.57
2017-01-12T06:40:40.844Z,5.49
2017-01-12T06:41:40.846Z,5.43
2017-01-12T06:42:40.853Z,5.53
2017-01-12T06:43:40.845Z,5.56
2017-01-12T06:44:40.853Z,5.52
2017-01-12T06:45:40.851Z,5.52
2017-01-12T06:46:40.881Z,5.49
2017-01-12T06:47:40.872Z,5.43
2017-01-12T06:48:40.902Z,5.48
2017-01-12T06:49:40.881Z,5.43
2017-01-12T06:50:40.897Z,5.4
2017-01-12T06:51:40.868Z,5.48
2017-01-12T06:52:40.876Z,5.37
2017-01-12T06:53:40.868Z,5.52
2017-01-12T06:54:40.880Z,5.43
2017-01-12T06:55:40.866Z,5.38
2017-01-12T06:56:40.888Z,5.45
2017-01-12T06:57:40.853Z,5.55
2017-01-12T06:58:40.859Z,5.52
2017-01-12T06:59:40.900Z,5.4
2017-01-12T07:00:40.846Z,5.46
2017-01-12T07:01:40.889Z,5.52
2017-01-12T07:02:40.925Z,5.48
2017-01-12T07:03:40.876Z,5.34
2017-01-12T07:04:41.637Z,5.28
2017-01-12T07:05:40.857Z,5.34
2017-01-12T07:06:40.879Z,5.34
2017-01-12T07:07:40.859Z,5.46
2017-01-12T07:08:40.874Z,5.35
2017-01-12T07:09:40.858Z,5.32
2017-01-12T07:10:40.854Z,5.25
2017-01-12T07:11:40.914Z,5.17
2017-01-12T07:12:41.617Z,5.27
2017-01-12T07:13:40.873Z,5.31
2017-01-12T07:14:40.893Z,5.13
2017-01-12T07:15:42.266Z,5.27
2017-01-12T07:16:41.624Z,5.17
2017-01-12T07:17:40.872Z,5.09
2017-01-12T07:18:41.621Z,4.86
2017-01-12T07:19:40.883Z,5.02
2017-01-12T07:20:40.889Z,5.01
2017-01-12T07:21:40.884Z,4.95
2017-01-12T07:22:40.887Z,4.84
2017-01-12T07:23:40.893Z,4.91
2017-01-12T07:24:40.914Z,4.92
2017-01-12T07:25:40.892Z,4.79
2017-01-12T07:26:40.869Z,4.65
2017-01-12T07:27:41.552Z,4.73
2017-01-12T07:28:40.870Z,4.73
2017-01-12T07:29:40.889Z,4.83
2017-01-12T07:30:40.860Z,4.76
2017-01-12T07:31:40.939Z,4.58
2017-01-12T07:32:40.897Z,4.51
2017-01-12T07:33:40.921Z,4.67
2017-01-12T07:34:40.854Z,4.67
2017-01-12T07:35:40.860Z,4.7
2017-01-12T07:36:40.912Z,4.64
2017-01-12T07:37:40.875Z,4.67
2017-01-12T07:38:40.890Z,4.59
2017-01-12T07:39:40.873Z,4.65
2017-01-12T07:40:40.902Z,4.69
2017-01-12T07:41:40.920Z,4.72
2017-01-12T07:42:40.922Z,4.8
2017-01-12T07:43:40.936Z,4.69
2017-01-12T07:44:40.904Z,4.79
2017-01-12T07:45:41.554Z,4.88
2017-01-12T07:46:40.888Z,4.88
2017-01-12T07:47:40.899Z,4.88
2017-01-12T07:48:40.874Z,4.94
2017-01-12T07:49:40.884Z,4.8
2017-01-12T07:50:40.874Z,4.79
2017-01-12T07:51:40.968Z,4.77
2017-01-12T07:52:40.909Z,4.84
2017-01-12T07:53:40.881Z,4.69
2017-01-12T07:54:40.877Z,4.8
2017-01-12T07:55:40.892Z,4.75
2017-01-12T07:56:40.916Z,4.77
2017-01-12T07:57:40.897Z,4.75
2017-01-12T07:58:40.888Z,4.77
2017-01-12T07:59:41.669Z,4.65
2017-01-12T08:00:40.909Z,4.79
2017-01-12T08:01:40.899Z,4.83
2017-01-12T08:02:40.910Z,4.62
2017-01-12T08:03:40.918Z,4.75
2017-01-12T08:04:40.927Z,4.84
2017-01-12T08:05:41.014Z,4.73
2017-01-12T08:06:41.913Z,4.83
2017-01-12T08:07:40.950Z,4.95
2017-01-12T08:08:40.962Z,4.76
2017-01-12T08:09:40.924Z,4.73
2017-01-12T08:10:40.971Z,4.8
2017-01-12T08:11:40.963Z,4.72
2017-01-12T08:12:40.988Z,4.77
2017-01-12T08:13:40.972Z,4.95
2017-01-12T08:14:40.941Z,4.86
2017-01-12T08:15:40.928Z,4.8
2017-01-12T08:16:41.404Z,4.89
2017-01-12T08:17:40.963Z,4.84
2017-01-12T08:18:42.616Z,4.96
2017-01-12T08:19:40.922Z,5.01
2017-01-12T08:20:40.961Z,5.1
2017-01-12T08:21:41.212Z,5.14
2017-01-12T08:22:40.903Z,5.14
2017-01-12T08:23:40.941Z,5.28
2017-01-12T08:24:40.918Z,5.05
2017-01-12T08:25:40.897Z,5.28
2017-01-12T08:26:40.932Z,5.05
2017-01-12T08:27:40.910Z,5.19
2017-01-12T08:28:41.440Z,5.14
2017-01-12T08:29:40.947Z,5.3
2017-01-12T08:30:42.121Z,5.16
2017-01-12T08:31:40.962Z,5.28
2017-01-12T08:32:40.977Z,5.31
2017-01-12T08:33:40.932Z,5.28
2017-01-12T08:34:42.227Z,5.45
2017-01-12T08:35:40.918Z,5.41
2017-01-12T08:36:40.944Z,5.35
2017-01-12T08:37:40.931Z,5.38
2017-01-12T08:38:40.925Z,5.4
2017-01-12T08:39:40.927Z,5.63
2017-01-12T08:40:40.958Z,5.38
2017-01-12T08:41:40.950Z,5.46
2017-01-12T08:42:40.952Z,5.32
2017-01-12T08:43:40.931Z,5.56
2017-01-12T08:44:40.925Z,5.4
2017-01-12T08:45:40.926Z,5.53
2017-01-12T08:46:41.833Z,5.46
2017-01-12T08:47:40.919Z,5.45
2017-01-12T08:48:40.942Z,5.35
2017-01-12T08:49:40.971Z,5.38
2017-01-12T08:50:40.955Z,5.41
2017-01-12T08:51:40.982Z,5.41
2017-01-12T08:52:40.978Z,5.56
2017-01-12T08:53:40.945Z,5.53
2017-01-12T08:54:40.939Z,5.6
2017-01-12T08:55:40.952Z,5.57
2017-01-12T08:56:40.975Z,5.43
2017-01-12T08:57:40.967Z,5.49
2017-01-12T08:58:40.982Z,5.56
2017-01-12T08:59:40.961Z,5.66
2017-01-12T09:00:40.972Z,5.64
2017-01-12T09:01:41.456Z,5.75
2017-01-12T09:02:41.448Z,5.57
2017-01-12T09:03:40.944Z,5.6
2017-01-12T09:04:41.958Z,5.73
2017-01-12T09:05:41.082Z,5.7
2017-01-12T09:06:41.005Z,5.68
2017-01-12T09:07:41.561Z,5.81
2017-01-12T09:08:41.980Z,5.85
2017-01-12T09:09:41.527Z,5.75
2017-01-12T09:10:42.013Z,5.98
2017-01-12T09:11:41.012Z,6
2017-01-12T09:12:40.977Z,5.96
2017-01-12T09:13:40.973Z,6
2017-01-12T09:14:41.881Z,6.09
2017-01-12T09:15:41.021Z,6.19
2017-01-12T09:16:42.148Z,6.07
2017-01-12T09:17:40.967Z,6.14
2017-01-12T09:18:41.334Z,6.14
2017-01-12T09:19:44.268Z,6.19
2017-01-12T09:20:41.101Z,6.21
2017-01-12T09:21:40.992Z,5.98
2017-01-12T09:22:40.986Z,6.18
2017-01-12T09:23:40.985Z,6.18
2017-01-12T09:24:41.319Z,6.18
2017-01-12T09:25:40.976Z,6.29
2017-01-12T09:26:41.678Z,6.26
2017-01-12T09:27:41.542Z,6.32
2017-01-12T09:28:41.581Z,6.28
2017-01-12T09:29:41.964Z,6.29
2017-01-12T09:30:41.388Z,6.21
2017-01-12T09:31:40.987Z,6.19
2017-01-12T09:32:41.015Z,6.35
2017-01-12T09:33:41.610Z,6.22
2017-01-12T09:34:41.023Z,6.19
2017-01-12T09:35:41.012Z,6.32
2017-01-12T09:36:40.980Z,6.25
2017-01-12T09:37:41.721Z,6.1
2017-01-12T09:38:42.588Z,6.16
2017-01-12T09:39:41.041Z,6.09
2017-01-12T09:40:41.120Z,6.19
2017-01-12T09:41:41.251Z,6.13
2017-01-12T09:42:41.035Z,6.13
2017-01-12T09:43:41.128Z,6.11
2017-01-12T09:44:41.009Z,6.01
2017-01-12T09:45:41.107Z,6.07
2017-01-12T09:46:41.108Z,6.06
2017-01-12T09:47:44.103Z,6.07
2017-01-12T09:48:43.706Z,6.13
2017-01-12T09:49:42.109Z,6.07
2017-01-12T09:50:42.071Z,6.18
2017-01-12T09:51:41.623Z,6.3
2017-01-12T09:52:41.108Z,6.18
2017-01-12T09:53:42.820Z,6.16
2017-01-12T09:54:42.984Z,6.14
2017-01-12T09:55:41.006Z,6.11
2017-01-12T09:56:41.422Z,6.11
2017-01-12T09:57:41.118Z,6.18
2017-01-12T09:58:42.332Z,6.14
2017-01-12T09:59:41.811Z,6.25
2017-01-12T10:00:41.083Z,6.4
2017-01-12T10:01:41.047Z,6.36
2017-01-12T10:02:41.098Z,6.35
2017-01-12T10:03:41.309Z,6.36
2017-01-12T10:04:43.484Z,6.38
2017-01-12T10:05:42.900Z,6.51
2017-01-12T10:06:41.038Z,6.53
2017-01-12T10:07:41.109Z,6.48
2017-01-12T10:08:41.053Z,6.5
2017-01-12T10:09:41.835Z,6.56
2017-01-12T10:10:42.469Z,6.5
2017-01-12T10:11:42.182Z,6.51
2017-01-12T10:12:42.220Z,6.58
2017-01-12T10:13:41.045Z,6.44
2017-01-12T10:14:41.802Z,6.59
2017-01-12T10:15:42.369Z,6.62
2017-01-12T10:16:41.471Z,6.58
2017-01-12T10:17:41.069Z,6.47
2017-01-12T10:18:41.026Z,6.63
2017-01-12T10:19:41.062Z,6.68
2017-01-12T10:20:41.936Z,6.43
2017-01-12T10:21:42.380Z,6.62
2017-01-12T10:22:41.480Z,6.56
2017-01-12T10:23:41.653Z,6.51
2017-01-12T10:24:41.063Z,6.68
2017-01-12T10:25:41.013Z,6.61
2017-01-12T10:26:41.068Z,6.56
2017-01-12T10:27:41.100Z,6.61
2017-01-12T10:28:41.093Z,6.59
2017-01-12T10:29:41.062Z,6.61
2017-01-12T10:30:42.474Z,6.58
2017-01-12T10:31:41.058Z,6.65
2017-01-12T10:32:41.171Z,6.56
2017-01-12T10:33:41.749Z,6.68
2017-01-12T10:34:41.049Z,6.62
2017-01-12T10:35:41.237Z,6.63
2017-01-12T10:36:41.084Z,6.68
2017-01-12T10:37:41.072Z,6.8
2017-01-12T10:38:41.099Z,6.65
2017-01-12T10:39:41.851Z,6.58
2017-01-12T10:40:42.192Z,6.66
2017-01-12T10:41:41.746Z,6.72
2017-01-12T10:42:41.435Z,6.59
2017-01-12T10:43:41.271Z,6.61
2017-01-12T10:44:41.803Z,6.58
2017-01-12T10:45:41.758Z,6.54
2017-01-12T10:46:41.115Z,6.54
2017-01-12T10:47:41.422Z,6.43
2017-01-12T10:48:41.071Z,6.41
2017-01-12T10:49:41.075Z,6.48
2017-01-12T10:50:41.105Z,6.53
2017-01-12T10:51:41.845Z,6.38
2017-01-12T10:52:41.169Z,6.41
2017-01-12T10:53:41.119Z,6.35
2017-01-12T10:54:41.301Z,6.4
2017-01-12T10:55:41.022Z,6.35
2017-01-12T10:56:41.078Z,6.44
2017-01-12T10:57:41.060Z,6.36
2017-01-12T10:58:41.061Z,6.41
2017-01-12T10:59:41.068Z,6.43
2017-01-12T11:00:43.968Z,6.51
2017-01-12T11:01:41.054Z,6.33
2017-01-12T11:02:41.111Z,6.54
2017-01-12T11:03:41.057Z,6.46
2017-01-12T11:04:41.646Z,6.54
2017-01-12T11:05:41.079Z,6.47
2017-01-12T11:06:41.054Z,6.56
2017-01-12T11:07:41.643Z,6.71
2017-01-12T11:08:41.052Z,6.63
2017-01-12T11:09:41.351Z,6.62
2017-01-12T11:10:41.045Z,6.69
2017-01-12T11:11:41.085Z,6.65
2017-01-12T11:12:41.071Z,6.72
2017-01-12T11:13:41.041Z,6.72
2017-01-12T11:14:41.791Z,6.71
2017-01-12T11:15:41.224Z,6.79
2017-01-12T11:16:41.079Z,6.76
2017-01-12T11:17:41.802Z,6.79
2017-01-12T11:18:41.891Z,6.63
2017-01-12T11:19:41.101Z,6.76
2017-01-12T11:20:41.206Z,6.68
2017-01-12T11:21:41.651Z,6.81
2017-01-12T11:22:41.082Z,6.72
2017-01-12T11:23:41.057Z,6.69
2017-01-12T11:24:41.069Z,6.79
2017-01-12T11:25:41.033Z,6.8
2017-01-12T11:26:41.075Z,6.73
2017-01-12T11:27:41.065Z,6.72
2017-01-12T11:28:41.082Z,6.87
2017-01-12T11:29:41.103Z,6.77
2017-01-12T11:30:41.708Z,6.71
2017-01-12T11:31:41.070Z,6.79
2017-01-12T11:32:41.087Z,6.69
2017-01-12T11:33:41.066Z,6.65
2017-01-12T11:34:41.054Z,6.77
2017-01-12T11:35:41.086Z,6.71
2017-01-12T11:36:41.132Z,6.62
2017-01-12T11:37:41.091Z,6.71
2017-01-12T11:38:41.082Z,6.61
2017-01-12T11:39:41.832Z,6.68
2017-01-12T11:40:41.154Z,6.65
2017-01-12T11:41:41.112Z,6.69
2017-01-12T11:42:41.085Z,6.61
2017-01-12T11:43:41.080Z,6.77
2017-01-12T11:44:41.091Z,6.66
2017-01-12T11:45:41.152Z,6.65
2017-01-12T11:46:41.074Z,6.73
2017-01-12T11:47:41.141Z,6.73
2017-01-12T11:48:41.157Z,6.72
2017-01-12T11:49:41.085Z,6.89
2017-01-12T11:50:42.090Z,6.83
2017-01-12T11:51:41.092Z,6.9
2017-01-12T11:52:41.056Z,6.9
2017-01-12T11:53:41.100Z,6.84
2017-01-12T11:54:41.125Z,6.95
2017-01-12T11:55:42.422Z,6.99
2017-01-12T11:56:41.822Z,6.98
2017-01-12T11:57:41.192Z,7.08
2017-01-12T11:58:41.125Z,7.07
2017-01-12T11:59:41.842Z,7.05
2017-01-12T12:00:41.132Z,7.07
2017-01-12T12:01:41.089Z,6.97
2017-01-12T12:02:41.146Z,7.04
2017-01-12T12:03:41.097Z,6.97
2017-01-12T12:04:41.124Z,7.07
2017-01-12T12:05:41.087Z,7.07
2017-01-12T12:06:41.110Z,7.09
2017-01-12T12:07:43.188Z,7.04
2017-01-12T12:08:41.119Z,7.09
2017-01-12T12:09:41.109Z,7.01
2017-01-12T12:10:41.077Z,7.02
2017-01-12T12:11:41.127Z,7.07
2017-01-12T12:12:41.107Z,7.05
2017-01-12T12:13:42.091Z,6.81
2017-01-12T12:14:41.111Z,7.04
2017-01-12T12:15:41.138Z,6.91
2017-01-12T12:16:41.084Z,7.09
2017-01-12T12:17:41.145Z,7.09
2017-01-12T12:18:41.116Z,7.07
2017-01-12T12:19:41.140Z,7.16
2017-01-12T12:20:41.157Z,7.08
2017-01-12T12:21:41.705Z,7.08
2017-01-12T12:22:41.122Z,7.07
2017-01-12T12:23:41.129Z,7.19
2017-01-12T12:24:41.104Z,7.16
2017-01-12T12:25:41.139Z,7.09
2017-01-12T12:26:41.167Z,7.12
2017-01-12T12:27:41.075Z,7.08
2017-01-12T12:28:41.129Z,7.05
2017-01-12T12:29:41.103Z,7.07
2017-01-12T12:30:41.125Z,7.13
2017-01-12T12:31:41.075Z,7.01
2017-01-12T12:32:41.142Z,7.22
2017-01-12T12:33:41.127Z,7.32
2017-01-12T12:34:41.121Z,7.29
2017-01-12T12:35:41.129Z,7.37
2017-01-12T12:36:41.133Z,7.35
2017-01-12T12:37:43.033Z,7.37
2017-01-12T12:38:43.904Z,7.4
2017-01-12T12:39:41.162Z,7.45
2017-01-12T12:40:41.129Z,7.41
2017-01-12T12:41:41.119Z,7.58
2017-01-12T12:42:41.142Z,7.47
2017-01-12T12:43:44.624Z,7.56
2017-01-12T12:44:41.107Z,7.62
2017-01-12T12:45:42.369Z,7.67
2017-01-12T12:46:41.150Z,7.62
2017-01-12T12:47:41.755Z,7.58
2017-01-12T12:48:41.187Z,7.66
2017-01-12T12:49:42.565Z,7.62
2017-01-12T12:50:41.128Z,7.62
2017-01-12T12:51:41.139Z,7.81
2017-01-12T12:52:41.154Z,7.77
2017-01-12T12:53:41.219Z,7.66
2017-01-12T12:54:43.262Z,7.6
2017-01-12T12:55:41.117Z,7.69
2017-01-12T12:56:41.147Z,7.58
2017-01-12T12:57:41.140Z,7.77
2017-01-12T12:58:41.172Z,7.81
2017-01-12T12:59:41.152Z,7.63
2017-01-12T13:00:41.137Z,7.66
2017-01-12T13:01:41.115Z,7.67
2017-01-12T13:02:42.299Z,7.62
2017-01-12T13:03:41.173Z,7.69
2017-01-12T13:04:41.726Z,7.6
2017-01-12T13:05:41.174Z,7.75
2017-01-12T13:06:41.175Z,7.78
2017-01-12T13:07:41.174Z,7.77
2017-01-12T13:08:41.182Z,7.74
2017-01-12T13:09:41.173Z,7.72
2017-01-12T13:10:41.163Z,7.67
2017-01-12T13:11:41.170Z,7.78
2017-01-12T13:12:41.202Z,7.69
2017-01-12T13:13:41.212Z,7.6
2017-01-12T13:14:42.159Z,7.63
2017-01-12T13:15:41.200Z,7.69
2017-01-12T13:16:41.176Z,7.58
2017-01-12T13:17:42.166Z,7.67
2017-01-12T13:18:41.258Z,7.56
2017-01-12T13:19:41.183Z,7.52
2017-01-12T13:20:41.195Z,7.69
2017-01-12T13:21:41.874Z,7.49